createdAt,value
2022-12-04T00:00:13.827Z,55.80
2022-12-04T00:01:13.761Z,56.50
2022-12-04T00:02:13.698Z,54.80
2022-12-04T00:03:13.746Z,56.60
2022-12-04T00:04:13.654Z,54.10
2022-12-04T00:05:13.583Z,52.40
2022-12-04T00:06:13.435Z,54.00
2022-12-04T00:07:13.397Z,53.50
2022-12-04T00:08:13.398Z,52.20
2022-12-04T00:09:13.220Z,53.90
2022-12-04T00:10:13.205Z,55.60
2022-12-04T00:11:13.135Z,55.70
2022-12-04T00:12:13.048Z,53.40
2022-12-04T00:13:12.956Z,53.60
2022-12-04T00:14:12.890Z,55.30
2022-12-04T00:15:28.282Z,52.90
2022-12-04T00:16:12.850Z,54.00
2022-12-04T00:17:12.772Z,54.60
2022-12-04T00:18:12.684Z,55.10
2022-12-04T00:19:12.594Z,53.00
2022-12-04T00:20:12.502Z,50.80
2022-12-04T00:21:12.461Z,52.40
2022-12-04T00:22:12.371Z,54.20
2022-12-04T00:23:12.355Z,54.20
2022-12-04T00:24:12.276Z,54.50
2022-12-04T00:25:12.182Z,51.80
2022-12-04T00:26:12.111Z,55.10
2022-12-04T00:27:12.070Z,51.70
2022-12-04T00:28:11.991Z,50.60
2022-12-04T00:29:12.238Z,51.20
2022-12-04T00:30:11.909Z,52.70
2022-12-04T00:31:11.861Z,51.50
2022-12-04T00:32:11.770Z,51.50
2022-12-04T00:33:11.728Z,50.40
2022-12-04T00:34:11.651Z,51.40
2022-12-04T00:35:11.574Z,50.60
2022-12-04T00:36:11.517Z,51.70
2022-12-04T00:37:11.421Z,49.70
2022-12-04T00:38:11.358Z,51.30
2022-12-04T00:39:11.353Z,49.40
2022-12-04T00:40:11.252Z,49.20
2022-12-04T00:41:11.165Z,51.00
2022-12-04T00:42:11.107Z,50.60
2022-12-04T00:43:11.026Z,50.80
2022-12-04T00:44:10.989Z,49.50
2022-12-04T00:45:10.904Z,49.50
2022-12-04T00:46:10.956Z,50.60
2022-12-04T00:47:10.787Z,49.70
2022-12-04T00:48:10.734Z,49.60
2022-12-04T00:49:10.668Z,48.40
2022-12-04T00:50:10.547Z,49.50
2022-12-04T00:51:10.508Z,47.70
2022-12-04T00:52:10.454Z,47.80
2022-12-04T00:53:10.375Z,47.40
2022-12-04T00:54:10.359Z,48.30
2022-12-04T00:55:10.277Z,46.50
2022-12-04T00:56:10.185Z,46.80
2022-12-04T00:57:10.120Z,49.30
2022-12-04T00:58:10.059Z,48.40
2022-12-04T00:59:10.348Z,47.10
2022-12-04T01:00:09.920Z,47.10
2022-12-04T01:01:09.943Z,46.50
2022-12-04T01:02:09.853Z,48.30
2022-12-04T01:03:09.847Z,45.60
2022-12-04T01:04:09.634Z,48.20
2022-12-04T01:05:09.623Z,44.60
2022-12-04T01:06:09.532Z,45.70
2022-12-04T01:07:09.466Z,46.60
2022-12-04T01:08:09.473Z,45.50
2022-12-04T01:09:09.339Z,46.30
2022-12-04T01:10:09.245Z,45.90
2022-12-04T01:11:09.225Z,45.60
2022-12-04T01:12:09.145Z,44.20
2022-12-04T01:13:09.085Z,47.00
2022-12-04T01:14:09.039Z,46.60
2022-12-04T01:15:08.950Z,44.80
2022-12-04T01:16:08.996Z,44.00
2022-12-04T01:17:08.850Z,44.50
2022-12-04T01:18:08.757Z,44.50
2022-12-04T01:19:08.718Z,44.90
2022-12-04T01:20:08.619Z,42.80
2022-12-04T01:21:08.559Z,44.60
2022-12-04T01:22:08.524Z,43.90
2022-12-04T01:23:08.450Z,44.20
2022-12-04T01:24:08.390Z,43.80
2022-12-04T01:25:08.273Z,43.90
2022-12-04T01:26:09.203Z,44.70
2022-12-04T01:27:08.162Z,46.20
2022-12-04T01:28:08.098Z,43.20
2022-12-04T01:29:38.116Z,45.50
2022-12-04T01:30:07.970Z,43.00
2022-12-04T01:31:07.909Z,44.40
2022-12-04T01:32:07.903Z,44.10
2022-12-04T01:33:07.802Z,43.10
2022-12-04T01:34:07.706Z,42.80
2022-12-04T01:35:07.682Z,43.50
2022-12-04T01:36:07.580Z,41.30
2022-12-04T01:37:07.501Z,41.60
2022-12-04T01:38:07.478Z,40.60
2022-12-04T01:39:07.385Z,41.30
2022-12-04T01:40:07.363Z,39.60
2022-12-04T01:41:07.287Z,42.30
2022-12-04T01:42:07.224Z,41.90
2022-12-04T01:43:07.132Z,42.50
2022-12-04T01:44:07.068Z,43.00
2022-12-04T01:45:07.027Z,42.50
2022-12-04T01:46:07.040Z,42.90
2022-12-04T01:47:06.860Z,44.30
2022-12-04T01:48:06.806Z,43.70
2022-12-04T01:49:06.776Z,41.50
2022-12-04T01:50:06.673Z,42.40
2022-12-04T01:51:06.639Z,42.70
2022-12-04T01:52:06.544Z,42.00
2022-12-04T01:53:06.470Z,43.90
2022-12-04T01:54:06.416Z,43.50
2022-12-04T01:55:06.373Z,43.00
2022-12-04T01:56:06.259Z,40.20
2022-12-04T01:57:06.217Z,42.40
2022-12-04T01:58:06.154Z,43.60
2022-12-04T01:59:06.076Z,37.90
2022-12-04T02:00:06.050Z,37.40
2022-12-04T02:01:08.885Z,38.30
2022-12-04T02:02:06.033Z,38.20
2022-12-04T02:03:05.962Z,37.60
2022-12-04T02:04:05.742Z,37.10
2022-12-04T02:05:09.990Z,37.40
2022-12-04T02:06:05.637Z,36.20
2022-12-04T02:07:05.595Z,38.90
2022-12-04T02:08:05.626Z,37.30
2022-12-04T02:09:05.473Z,37.50
2022-12-04T02:10:05.397Z,35.30
2022-12-04T02:11:05.334Z,34.50
2022-12-04T02:12:05.244Z,34.30
2022-12-04T02:13:05.186Z,35.00
2022-12-04T02:14:05.120Z,35.90
2022-12-04T02:15:05.045Z,35.50
2022-12-04T02:16:05.079Z,33.10
2022-12-04T02:17:05.004Z,34.10
2022-12-04T02:18:04.855Z,33.40
2022-12-04T02:19:04.781Z,33.00
2022-12-04T02:20:04.701Z,33.10
2022-12-04T02:21:04.634Z,32.50
2022-12-04T02:22:04.628Z,32.80
2022-12-04T02:23:04.514Z,32.70
2022-12-04T02:24:04.488Z,32.00
2022-12-04T02:25:04.400Z,30.30
2022-12-04T02:26:04.356Z,30.00
2022-12-04T02:27:04.305Z,31.30
2022-12-04T02:28:04.229Z,34.10
2022-12-04T02:29:04.152Z,32.60
2022-12-04T02:30:04.058Z,33.20
2022-12-04T02:31:04.051Z,33.10
2022-12-04T02:32:03.934Z,32.70
2022-12-04T02:33:03.883Z,32.90
2022-12-04T02:34:03.809Z,29.80
2022-12-04T02:35:03.998Z,28.50
2022-12-04T02:36:03.689Z,31.00
2022-12-04T02:37:03.619Z,30.00
2022-12-04T02:38:03.577Z,29.80
2022-12-04T02:39:03.492Z,31.10
2022-12-04T02:40:03.398Z,29.60
2022-12-04T02:43:21.782Z,31.10
2022-12-04T02:44:22.730Z,32.10
2022-12-04T02:45:22.672Z,30.90
2022-12-04T02:46:22.735Z,28.40
2022-12-04T02:47:22.544Z,29.30
2022-12-04T02:48:22.520Z,28.80
2022-12-04T02:49:22.383Z,29.00
2022-12-04T02:50:22.345Z,29.60
2022-12-04T02:51:22.301Z,31.50
2022-12-04T02:52:22.186Z,32.70
2022-12-04T02:53:22.180Z,30.60
2022-12-04T02:54:22.101Z,30.50
2022-12-04T02:55:21.997Z,29.30
2022-12-04T02:56:21.983Z,30.10
2022-12-04T02:57:21.910Z,30.80
2022-12-04T02:58:21.797Z,30.20
2022-12-04T02:59:21.768Z,26.80
2022-12-04T03:00:21.713Z,29.30
2022-12-04T03:01:21.777Z,29.30
2022-12-04T03:02:21.676Z,30.00
2022-12-04T03:03:21.469Z,30.10
2022-12-04T03:04:21.433Z,32.20
2022-12-04T03:05:21.369Z,31.10
2022-12-04T03:06:21.577Z,32.20
2022-12-04T03:07:21.214Z,33.70
2022-12-04T03:08:21.159Z,32.70
2022-12-04T03:09:21.131Z,32.50
2022-12-04T03:10:21.048Z,32.50
2022-12-04T03:11:20.983Z,31.30
2022-12-04T03:12:20.898Z,30.20
2022-12-04T03:13:20.854Z,31.80
2022-12-04T03:14:20.757Z,32.60
2022-12-04T03:15:20.692Z,33.40
2022-12-04T03:16:20.672Z,32.60
2022-12-04T03:17:20.583Z,33.20
2022-12-04T03:18:21.766Z,33.90
2022-12-04T03:19:20.456Z,32.60
2022-12-04T03:20:20.391Z,35.30
2022-12-04T03:21:20.328Z,31.30
2022-12-04T03:22:20.254Z,32.90
2022-12-04T03:23:20.203Z,33.30
2022-12-04T03:24:20.215Z,33.20
2022-12-04T03:25:20.068Z,32.70
2022-12-04T03:26:20.028Z,31.40
2022-12-04T03:27:19.943Z,30.60
2022-12-04T03:28:19.868Z,33.00
2022-12-04T03:29:19.779Z,29.60
2022-12-04T03:30:19.780Z,32.80
2022-12-04T03:31:19.771Z,31.40
2022-12-04T03:32:19.612Z,31.30
2022-12-04T03:33:19.582Z,31.40
2022-12-04T03:34:19.490Z,31.80
2022-12-04T03:35:19.411Z,32.00
2022-12-04T03:36:19.719Z,33.10
2022-12-04T03:37:19.312Z,34.30
2022-12-04T03:38:19.229Z,34.80
2022-12-04T03:39:19.187Z,33.20
2022-12-04T03:40:19.117Z,31.80
2022-12-04T03:41:19.051Z,32.60
2022-12-04T03:44:17.710Z,31.50
2022-12-04T03:45:19.137Z,32.60
2022-12-04T03:46:18.672Z,33.40
2022-12-04T03:47:18.573Z,35.40
2022-12-04T03:48:22.940Z,34.10
2022-12-04T03:49:18.385Z,36.10
2022-12-04T03:50:18.322Z,33.20
2022-12-04T03:51:18.293Z,33.90
2022-12-04T03:52:18.190Z,34.20
2022-12-04T03:53:18.129Z,34.80
2022-12-04T03:56:47.079Z,33.80
2022-12-04T03:57:48.003Z,35.00
2022-12-04T03:58:47.940Z,35.90
2022-12-04T03:59:51.096Z,36.20
2022-12-04T04:00:47.863Z,34.30
2022-12-04T04:01:47.808Z,35.70
2022-12-04T04:02:47.711Z,33.50
2022-12-04T04:03:47.685Z,35.20
2022-12-04T04:04:47.594Z,33.90
2022-12-04T04:05:47.489Z,33.90
2022-12-04T04:06:47.445Z,36.00
2022-12-04T04:07:47.422Z,35.80
2022-12-04T04:08:47.360Z,35.20
2022-12-04T04:09:47.247Z,35.50
2022-12-04T04:10:47.232Z,36.70
2022-12-04T04:11:47.119Z,34.90
2022-12-04T04:12:47.068Z,34.10
2022-12-04T04:13:48.214Z,36.40
2022-12-04T04:14:46.959Z,36.60
2022-12-04T04:15:46.906Z,37.40
2022-12-04T04:16:46.779Z,33.90
2022-12-04T04:17:46.745Z,37.00
2022-12-04T04:18:46.642Z,34.80
2022-12-04T04:19:47.224Z,34.50
2022-12-04T04:20:46.586Z,32.60
2022-12-04T04:21:46.478Z,35.00
2022-12-04T04:22:49.367Z,33.70
2022-12-04T04:23:46.313Z,33.00
2022-12-04T04:24:46.253Z,34.00
2022-12-04T04:25:46.207Z,33.50
2022-12-04T04:26:46.117Z,34.20
2022-12-04T04:27:46.057Z,36.10
2022-12-04T04:28:46.021Z,35.20
2022-12-04T04:29:52.057Z,33.80
2022-12-04T04:30:45.936Z,33.50
2022-12-04T04:34:04.271Z,33.80
2022-12-04T04:35:05.210Z,34.60
2022-12-04T04:36:05.169Z,33.50
2022-12-04T04:37:05.081Z,35.90
2022-12-04T04:38:05.007Z,38.20
2022-12-04T04:39:05.196Z,36.00
2022-12-04T04:40:04.919Z,35.80
2022-12-04T04:41:04.824Z,35.80
2022-12-04T04:42:04.746Z,36.30
2022-12-04T04:43:04.719Z,35.40
2022-12-04T04:44:04.658Z,35.20
2022-12-04T04:45:04.544Z,35.10
2022-12-04T04:46:04.468Z,35.90
2022-12-04T04:47:04.427Z,36.60
2022-12-04T04:48:05.212Z,37.00
2022-12-04T04:49:04.300Z,35.90
2022-12-04T04:50:04.254Z,35.70
2022-12-04T04:51:04.215Z,35.30
2022-12-04T04:52:04.102Z,33.90
2022-12-04T04:53:03.992Z,37.10
2022-12-04T04:54:03.941Z,37.00
2022-12-04T04:55:03.850Z,36.10
2022-12-04T04:56:03.812Z,37.10
2022-12-04T04:57:03.762Z,37.80
2022-12-04T04:58:03.742Z,37.70
2022-12-04T04:59:03.616Z,35.60
2022-12-04T05:00:03.593Z,36.00
2022-12-04T05:01:03.523Z,32.00
2022-12-04T05:02:03.544Z,33.10
2022-12-04T05:03:03.424Z,34.30
2022-12-04T05:04:03.317Z,35.30
2022-12-04T05:05:03.254Z,35.60
2022-12-04T05:06:03.139Z,35.40
2022-12-04T05:07:03.099Z,36.60
2022-12-04T05:08:03.093Z,35.00
2022-12-04T05:12:30.656Z,34.00
2022-12-04T05:13:31.562Z,35.10
2022-12-04T05:14:31.492Z,35.70
2022-12-04T05:15:31.423Z,34.80
2022-12-04T05:16:31.357Z,36.70
2022-12-04T05:17:31.304Z,35.90
2022-12-04T05:18:31.228Z,36.20
2022-12-04T05:19:31.223Z,35.10
2022-12-04T05:20:31.133Z,33.50
2022-12-04T05:21:31.037Z,32.00
2022-12-04T05:22:30.993Z,33.20
2022-12-04T05:23:30.947Z,32.50
2022-12-04T05:24:30.865Z,33.80
2022-12-04T05:25:30.746Z,32.90
2022-12-04T05:26:30.736Z,32.90
2022-12-04T05:27:30.711Z,33.60
2022-12-04T05:28:30.605Z,34.40
2022-12-04T05:29:51.512Z,32.20
2022-12-04T05:30:30.481Z,33.30
2022-12-04T05:31:30.482Z,32.70
2022-12-04T05:32:30.362Z,34.40
2022-12-04T05:33:30.263Z,33.10
2022-12-04T05:34:30.215Z,32.30
2022-12-04T05:35:30.162Z,32.60
2022-12-04T05:36:30.058Z,31.20
2022-12-04T05:37:30.025Z,30.90
2022-12-04T05:38:29.967Z,29.40
2022-12-04T05:39:29.836Z,31.80
2022-12-04T05:40:29.829Z,31.30
2022-12-04T05:41:30.005Z,31.50
2022-12-04T05:42:29.698Z,31.70
2022-12-04T05:43:29.601Z,32.10
2022-12-04T05:44:29.533Z,31.40
2022-12-04T05:45:29.502Z,30.50
2022-12-04T05:46:29.512Z,30.50
2022-12-04T05:49:03.597Z,29.90
2022-12-04T05:49:39.507Z,30.60
2022-12-04T05:50:39.520Z,30.40
2022-12-04T05:51:39.393Z,31.10
2022-12-04T05:52:39.320Z,29.60
2022-12-04T05:53:39.257Z,29.30
2022-12-04T05:54:39.179Z,29.90
2022-12-04T05:55:39.165Z,30.40
2022-12-04T05:56:39.092Z,29.80
2022-12-04T05:57:39.057Z,32.70
2022-12-04T05:58:38.969Z,30.10
2022-12-04T05:59:38.905Z,29.40
2022-12-04T06:00:38.796Z,29.50
2022-12-04T06:01:38.790Z,29.40
2022-12-04T06:02:38.770Z,31.60
2022-12-04T06:03:38.700Z,32.10
2022-12-04T06:04:38.619Z,33.40
2022-12-04T06:05:38.517Z,31.10
2022-12-04T06:06:59.477Z,33.20
2022-12-04T06:07:38.366Z,31.10
2022-12-04T06:08:38.267Z,31.10
2022-12-04T06:09:38.249Z,29.00
2022-12-04T06:10:38.142Z,28.50
2022-12-04T06:11:38.090Z,29.60
2022-12-04T06:12:38.415Z,29.10
2022-12-04T06:13:37.992Z,30.10
2022-12-04T06:14:40.010Z,30.80
2022-12-04T06:15:37.821Z,32.30
2022-12-04T06:16:37.858Z,32.20
2022-12-04T06:17:37.709Z,31.60
2022-12-04T06:18:37.683Z,30.80
2022-12-04T06:19:37.568Z,31.60
2022-12-04T06:20:38.500Z,30.70
2022-12-04T06:21:37.460Z,30.80
2022-12-04T06:22:37.411Z,30.90
2022-12-04T06:23:37.292Z,32.40
2022-12-04T06:24:37.296Z,31.90
2022-12-04T06:25:37.217Z,32.70
2022-12-04T06:26:51.993Z,32.90
2022-12-04T06:27:37.067Z,32.40
2022-12-04T06:28:36.961Z,32.40
2022-12-04T06:29:36.950Z,31.30
2022-12-04T06:30:36.928Z,31.00
2022-12-04T06:31:36.869Z,29.00
2022-12-04T06:32:36.789Z,29.00
2022-12-04T06:33:36.719Z,29.10
2022-12-04T06:34:36.600Z,28.50
2022-12-04T06:35:36.526Z,30.30
2022-12-04T06:36:36.999Z,29.20
2022-12-04T06:37:36.438Z,30.70
2022-12-04T06:38:36.362Z,30.10
2022-12-04T06:39:36.287Z,30.60
2022-12-04T06:40:36.236Z,32.50
2022-12-04T06:41:36.174Z,29.00
2022-12-04T06:42:36.427Z,29.00
2022-12-04T06:43:35.992Z,29.50
2022-12-04T06:44:35.971Z,28.80
2022-12-04T06:45:35.889Z,30.20
2022-12-04T06:46:35.775Z,29.30
2022-12-04T06:47:35.782Z,30.60
2022-12-04T06:48:35.635Z,29.70
2022-12-04T06:49:35.541Z,30.50
2022-12-04T06:50:35.533Z,29.60
2022-12-04T06:51:35.442Z,31.20
2022-12-04T06:52:35.378Z,32.00
2022-12-04T06:53:35.394Z,30.20
2022-12-04T06:54:35.283Z,31.10
2022-12-04T06:55:35.183Z,31.20
2022-12-04T06:56:35.141Z,31.00
2022-12-04T06:57:35.055Z,32.80
2022-12-04T06:58:34.969Z,31.10
2022-12-04T06:59:34.941Z,31.40
2022-12-04T07:00:36.246Z,32.60
2022-12-04T07:01:34.961Z,30.80
2022-12-04T07:02:34.767Z,32.00
2022-12-04T07:03:34.661Z,32.10
2022-12-04T07:04:34.601Z,31.90
2022-12-04T07:05:34.509Z,30.40
2022-12-04T07:06:34.464Z,31.20
2022-12-04T07:07:34.444Z,32.60
2022-12-04T07:08:34.318Z,31.20
2022-12-04T07:09:34.296Z,32.30
2022-12-04T07:10:34.228Z,31.60
2022-12-04T07:11:34.144Z,32.60
2022-12-04T07:12:34.129Z,32.70
2022-12-04T07:13:34.038Z,31.60
2022-12-04T07:14:33.917Z,31.80
2022-12-04T07:15:33.928Z,29.70
2022-12-04T07:16:39.931Z,30.10
2022-12-04T07:17:33.765Z,32.10
2022-12-04T07:18:33.677Z,31.50
2022-12-04T07:19:33.629Z,31.00
2022-12-04T07:20:33.553Z,32.80
2022-12-04T07:21:33.513Z,33.50
2022-12-04T07:22:33.432Z,32.90
2022-12-04T07:23:33.355Z,33.70
2022-12-04T07:24:33.281Z,33.50
2022-12-04T07:25:33.252Z,32.20
2022-12-04T07:26:33.200Z,33.90
2022-12-04T07:27:33.123Z,34.50
2022-12-04T07:28:33.065Z,31.90
2022-12-04T07:29:32.994Z,34.10
2022-12-04T07:30:32.912Z,33.30
2022-12-04T07:31:32.873Z,30.00
2022-12-04T07:32:32.801Z,32.00
2022-12-04T07:33:32.771Z,32.70
2022-12-04T07:34:32.657Z,35.40
2022-12-04T07:35:32.659Z,35.10
2022-12-04T07:36:32.529Z,35.90
2022-12-04T07:37:32.521Z,33.40
2022-12-04T07:38:32.410Z,32.40
2022-12-04T07:39:32.307Z,32.90
2022-12-04T07:40:32.237Z,33.30
2022-12-04T07:41:32.167Z,33.60
2022-12-04T07:42:32.107Z,33.70
2022-12-04T07:43:32.039Z,33.00
2022-12-04T07:44:32.027Z,33.70
2022-12-04T07:45:31.989Z,33.80
2022-12-04T07:46:31.910Z,35.00
2022-12-04T07:47:31.779Z,33.10
2022-12-04T07:48:33.470Z,33.30
2022-12-04T07:49:31.673Z,33.70
2022-12-04T07:50:31.609Z,34.40
2022-12-04T07:51:31.520Z,35.50
2022-12-04T07:52:31.509Z,36.10
2022-12-04T07:53:31.422Z,34.20
2022-12-04T07:54:32.543Z,33.20
2022-12-04T07:55:31.284Z,35.80
2022-12-04T07:56:31.220Z,33.70
2022-12-04T07:57:31.154Z,34.50
2022-12-04T07:58:31.114Z,34.40
2022-12-04T07:59:31.027Z,34.10
2022-12-04T08:00:31.004Z,33.10
2022-12-04T08:01:31.006Z,32.90
2022-12-04T08:02:30.832Z,34.30
2022-12-04T08:03:30.763Z,32.00
2022-12-04T08:04:30.749Z,33.50
2022-12-04T08:05:30.662Z,32.20
2022-12-04T08:06:30.664Z,33.60
2022-12-04T08:07:30.561Z,33.50
2022-12-04T08:08:30.473Z,35.40
2022-12-04T08:09:30.434Z,34.00
2022-12-04T08:10:30.337Z,35.50
2022-12-04T08:11:30.241Z,33.50
2022-12-04T08:12:51.162Z,32.90
2022-12-04T08:13:30.147Z,32.10
2022-12-04T08:14:30.049Z,34.80
2022-12-04T08:15:30.017Z,33.50
2022-12-04T08:16:30.075Z,34.30
2022-12-04T08:17:29.933Z,32.90
2022-12-04T08:18:29.800Z,32.40
2022-12-04T08:19:29.752Z,33.90
2022-12-04T08:20:29.797Z,33.20
2022-12-04T08:21:29.621Z,33.70
2022-12-04T08:22:29.529Z,31.60
2022-12-04T08:23:29.532Z,34.80
2022-12-04T08:24:29.441Z,33.70
2022-12-04T08:25:29.338Z,34.20
2022-12-04T08:26:29.271Z,32.60
2022-12-04T08:27:29.224Z,33.50
2022-12-04T08:28:29.144Z,33.40
2022-12-04T08:29:29.095Z,32.40
2022-12-04T08:30:29.044Z,30.50
2022-12-04T08:31:29.157Z,30.60
2022-12-04T08:32:28.934Z,32.60
2022-12-04T08:33:28.830Z,31.20
2022-12-04T08:34:28.816Z,32.70
2022-12-04T08:35:28.760Z,33.10
2022-12-04T08:36:28.636Z,32.30
2022-12-04T08:37:28.569Z,31.20
2022-12-04T08:38:28.507Z,31.60
2022-12-04T08:39:28.492Z,32.90
2022-12-04T08:40:28.440Z,31.50
2022-12-04T08:41:28.275Z,31.20
2022-12-04T08:42:28.271Z,32.10
2022-12-04T08:43:28.204Z,31.90
2022-12-04T08:44:28.105Z,29.50
2022-12-04T08:45:28.045Z,31.90
2022-12-04T08:46:28.214Z,31.30
2022-12-04T08:47:27.941Z,31.00
2022-12-04T08:48:48.841Z,33.00
2022-12-04T08:49:27.787Z,33.80
2022-12-04T08:50:27.817Z,33.10
2022-12-04T08:51:27.659Z,33.60
2022-12-04T08:52:27.562Z,35.30
2022-12-04T08:53:27.546Z,34.20
2022-12-04T08:54:30.589Z,35.40
2022-12-04T08:55:27.427Z,32.30
2022-12-04T08:56:27.298Z,33.20
2022-12-04T08:57:27.270Z,34.20
2022-12-04T08:58:27.207Z,34.60
2022-12-04T08:59:27.132Z,32.70
2022-12-04T09:00:27.082Z,34.20
2022-12-04T09:01:27.088Z,32.90
2022-12-04T09:02:26.912Z,33.50
2022-12-04T09:03:30.902Z,35.00
2022-12-04T09:04:26.875Z,32.40
2022-12-04T09:05:26.786Z,33.60
2022-12-04T09:06:26.696Z,31.80
2022-12-04T09:07:26.610Z,33.60
2022-12-04T09:08:26.548Z,33.60
2022-12-04T09:09:26.463Z,35.10
2022-12-04T09:10:26.504Z,35.70
2022-12-04T09:11:26.382Z,35.00
2022-12-04T09:12:26.313Z,34.90
2022-12-04T09:13:26.233Z,34.10
2022-12-04T09:14:26.166Z,35.80
2022-12-04T09:15:26.250Z,35.20
2022-12-04T09:16:26.253Z,36.30
2022-12-04T09:17:25.960Z,36.00
2022-12-04T09:18:25.916Z,35.90
2022-12-04T09:19:25.803Z,37.00
2022-12-04T09:20:25.765Z,36.50
2022-12-04T09:21:25.687Z,37.30
2022-12-04T09:22:25.666Z,33.30
2022-12-04T09:23:25.580Z,36.10
2022-12-04T09:26:43.868Z,32.70
2022-12-04T09:27:44.775Z,35.50
2022-12-04T09:28:44.768Z,35.50
2022-12-04T09:29:44.692Z,34.80
2022-12-04T09:30:44.625Z,35.10
2022-12-04T09:31:44.673Z,37.40
2022-12-04T09:32:44.470Z,37.50
2022-12-04T09:33:44.424Z,36.10
2022-12-04T09:34:48.273Z,36.80
2022-12-04T09:35:44.282Z,38.20
2022-12-04T09:36:44.243Z,36.70
2022-12-04T09:37:44.163Z,36.60
2022-12-04T09:38:44.085Z,38.50
2022-12-04T09:39:44.023Z,37.30
2022-12-04T09:40:43.974Z,38.40
2022-12-04T09:41:43.918Z,38.90
2022-12-04T09:42:43.861Z,39.00
2022-12-04T09:46:02.135Z,36.20
2022-12-04T09:47:03.283Z,37.90
2022-12-04T09:48:03.004Z,37.90
2022-12-04T09:49:02.908Z,38.00
2022-12-04T09:50:02.852Z,39.20
2022-12-04T09:51:02.878Z,39.80
2022-12-04T09:52:02.744Z,38.20
2022-12-04T09:53:02.684Z,38.30
2022-12-04T09:54:02.562Z,39.00
2022-12-04T09:55:02.531Z,39.20
2022-12-04T09:56:02.433Z,39.80
2022-12-04T09:57:02.427Z,39.10
2022-12-04T09:58:02.682Z,41.10
2022-12-04T09:59:02.265Z,39.00
2022-12-04T10:00:02.260Z,40.20
2022-12-04T10:01:02.118Z,39.10
2022-12-04T10:02:02.046Z,38.20
2022-12-04T10:03:03.429Z,39.90
2022-12-04T10:04:05.877Z,38.90
2022-12-04T10:05:01.870Z,39.40
2022-12-04T10:06:01.787Z,38.80
2022-12-04T10:07:01.745Z,38.50
2022-12-04T10:08:01.702Z,39.30
2022-12-04T10:09:01.662Z,39.00
2022-12-04T10:10:01.523Z,36.90
2022-12-04T10:11:01.486Z,37.70
2022-12-04T10:12:01.396Z,38.70
2022-12-04T10:13:01.357Z,38.60
2022-12-04T10:14:01.331Z,37.80
2022-12-04T10:15:01.233Z,36.70
2022-12-04T10:16:01.198Z,38.40
2022-12-04T10:17:01.128Z,38.10
2022-12-04T10:18:01.030Z,37.60
2022-12-04T10:19:00.941Z,36.60
2022-12-04T10:20:00.921Z,37.30
2022-12-04T10:21:00.895Z,35.60
2022-12-04T10:22:00.798Z,38.10
2022-12-04T10:23:00.705Z,36.70
2022-12-04T10:24:00.672Z,38.00
2022-12-04T10:25:00.590Z,38.30
2022-12-04T10:26:00.540Z,37.60
2022-12-04T10:27:00.439Z,38.70
2022-12-04T10:28:00.353Z,36.70
2022-12-04T10:29:00.315Z,38.70
2022-12-04T10:30:00.284Z,35.70
2022-12-04T10:31:00.248Z,38.30
2022-12-04T10:32:00.151Z,38.40
2022-12-04T10:33:00.162Z,39.50
2022-12-04T10:33:59.993Z,37.10
2022-12-04T10:34:59.968Z,39.00
2022-12-04T10:35:59.862Z,37.00
2022-12-04T10:36:59.824Z,37.00
2022-12-04T10:37:59.731Z,39.50
2022-12-04T10:38:59.686Z,37.60
2022-12-04T10:39:59.605Z,38.30
2022-12-04T10:40:59.600Z,39.30
2022-12-04T10:41:59.475Z,37.50
2022-12-04T10:43:00.099Z,38.60
2022-12-04T10:43:59.326Z,37.20
2022-12-04T10:44:59.359Z,38.40
2022-12-04T10:45:59.214Z,38.40
2022-12-04T10:46:59.293Z,37.40
2022-12-04T10:47:59.085Z,39.80
2022-12-04T10:48:58.993Z,38.20
2022-12-04T10:49:58.965Z,38.70
2022-12-04T10:50:58.903Z,38.60
2022-12-04T10:51:58.827Z,39.00
2022-12-04T10:52:58.760Z,37.80
2022-12-04T10:53:58.706Z,38.80
2022-12-04T10:54:58.635Z,37.50
2022-12-04T10:55:58.567Z,35.80
2022-12-04T10:57:19.803Z,38.10
2022-12-04T10:57:58.469Z,38.50
2022-12-04T10:58:58.346Z,37.70
2022-12-04T10:59:58.731Z,39.40
2022-12-04T11:00:58.253Z,38.80
2022-12-04T11:02:02.991Z,37.90
2022-12-04T11:02:58.173Z,38.00
2022-12-04T11:03:58.028Z,38.70
2022-12-04T11:04:57.959Z,37.10
2022-12-04T11:05:57.893Z,39.60
2022-12-04T11:06:57.855Z,40.40
2022-12-04T11:07:57.878Z,38.50
2022-12-04T11:08:57.745Z,38.80
2022-12-04T11:09:58.144Z,38.70
2022-12-04T11:10:57.596Z,38.40
2022-12-04T11:11:57.560Z,40.00
2022-12-04T11:12:57.434Z,39.40
2022-12-04T11:13:57.432Z,38.20
2022-12-04T11:14:59.772Z,38.70
2022-12-04T11:15:57.306Z,38.40
2022-12-04T11:16:57.207Z,39.00
2022-12-04T11:17:57.210Z,38.10
2022-12-04T11:18:57.061Z,38.20
2022-12-04T11:19:57.361Z,39.00
2022-12-04T11:20:58.150Z,38.60
2022-12-04T11:21:56.859Z,38.90
2022-12-04T11:22:56.819Z,39.50
2022-12-04T11:23:56.750Z,40.20
2022-12-04T11:24:56.721Z,41.30
2022-12-04T11:26:02.060Z,42.00
2022-12-04T11:26:56.548Z,41.70
2022-12-04T11:27:56.463Z,39.70
2022-12-04T11:28:56.449Z,39.10
2022-12-04T11:29:56.792Z,39.10
2022-12-04T11:30:56.354Z,40.90
2022-12-04T11:31:56.369Z,38.70
2022-12-04T11:32:56.198Z,39.80
2022-12-04T11:33:56.104Z,39.80
2022-12-04T11:34:56.061Z,39.70
2022-12-04T11:35:55.987Z,39.60
2022-12-04T11:36:55.980Z,40.80
2022-12-04T11:37:55.847Z,40.80
2022-12-04T11:38:55.823Z,42.60
2022-12-04T11:39:56.009Z,37.90
2022-12-04T11:40:55.622Z,41.90
2022-12-04T11:41:55.588Z,40.90
2022-12-04T11:42:55.494Z,39.30
2022-12-04T11:43:59.926Z,40.80
2022-12-04T11:44:55.390Z,41.50
2022-12-04T11:45:55.327Z,39.90
2022-12-04T11:46:55.470Z,42.00
2022-12-04T11:47:55.193Z,42.20
2022-12-04T11:48:55.155Z,41.50
2022-12-04T11:49:55.092Z,40.30
2022-12-04T11:50:54.977Z,41.30
2022-12-04T11:51:54.934Z,41.10
2022-12-04T11:52:54.879Z,41.90
2022-12-04T11:53:54.844Z,40.20
2022-12-04T11:54:54.768Z,41.10
2022-12-04T11:55:54.675Z,41.00
2022-12-04T11:56:54.625Z,41.70
2022-12-04T11:57:54.540Z,39.30
2022-12-04T11:58:54.486Z,39.80
2022-12-04T11:59:54.830Z,42.40
2022-12-04T12:00:54.328Z,40.20
2022-12-04T12:01:58.208Z,42.00
2022-12-04T12:02:55.554Z,42.90
2022-12-04T12:03:54.191Z,40.90
2022-12-04T12:04:54.098Z,40.80
2022-12-04T12:05:54.038Z,39.10
2022-12-04T12:06:53.988Z,40.50
2022-12-04T12:07:59.126Z,41.50
2022-12-04T12:08:53.873Z,40.00
2022-12-04T12:09:53.960Z,39.90
2022-12-04T12:10:53.708Z,40.00
2022-12-04T12:11:53.615Z,39.20
2022-12-04T12:12:53.571Z,41.10
2022-12-04T12:13:53.506Z,42.10
2022-12-04T12:14:53.557Z,40.60
2022-12-04T12:15:53.380Z,40.30
2022-12-04T12:17:53.227Z,41.90
2022-12-04T12:18:53.214Z,41.90
2022-12-04T12:19:53.438Z,42.00
2022-12-04T12:20:53.095Z,42.90
2022-12-04T12:21:52.992Z,43.10
2022-12-04T12:22:52.924Z,43.90
2022-12-04T12:23:52.890Z,43.60
2022-12-04T12:24:52.810Z,42.50
2022-12-04T12:25:52.806Z,42.40
2022-12-04T12:26:52.691Z,43.60
2022-12-04T12:27:52.601Z,45.50
2022-12-04T12:28:52.544Z,40.90
2022-12-04T12:29:52.476Z,42.20
2022-12-04T12:30:52.439Z,43.80
2022-12-04T12:31:52.414Z,43.80
2022-12-04T12:32:52.304Z,44.30
2022-12-04T12:33:52.243Z,43.40
2022-12-04T12:34:52.118Z,42.30
2022-12-04T12:35:52.059Z,43.30
2022-12-04T12:36:56.446Z,41.80
2022-12-04T12:37:51.956Z,43.40
2022-12-04T12:38:51.900Z,40.90
2022-12-04T12:39:51.825Z,41.70
2022-12-04T12:40:51.785Z,41.80
2022-12-04T12:41:51.702Z,41.10
2022-12-04T12:42:57.880Z,39.80
2022-12-04T12:43:51.568Z,40.90
2022-12-04T12:44:52.719Z,41.20
2022-12-04T12:45:51.510Z,41.90
2022-12-04T12:46:51.413Z,43.80
2022-12-04T12:47:51.280Z,41.00
2022-12-04T12:48:56.589Z,41.30
2022-12-04T12:49:51.167Z,42.00
2022-12-04T12:51:08.957Z,42.20
2022-12-04T12:51:51.027Z,42.50
2022-12-04T12:52:50.961Z,42.40
2022-12-04T12:53:50.946Z,42.90
2022-12-04T12:54:50.883Z,44.70
2022-12-04T12:55:50.793Z,44.20
2022-12-04T12:56:50.770Z,44.40
2022-12-04T12:57:50.693Z,44.90
2022-12-04T12:58:50.602Z,43.60
2022-12-04T12:59:50.562Z,43.90
2022-12-04T13:00:50.508Z,43.10
2022-12-04T13:01:52.043Z,43.90
2022-12-04T13:02:50.395Z,43.50
2022-12-04T13:03:50.254Z,43.10
2022-12-04T13:04:50.207Z,44.80
2022-12-04T13:05:50.152Z,45.50
2022-12-04T13:06:50.080Z,46.70
2022-12-04T13:07:50.066Z,43.80
2022-12-04T13:08:50.211Z,43.80
2022-12-04T13:09:49.882Z,43.90
2022-12-04T13:10:49.813Z,44.30